createdAt,value
2019-03-10T00:01:36.022Z,98430.83
2019-03-10T00:04:08.830Z,98442.17
2019-03-10T00:06:47.031Z,98439.53
2019-03-10T00:09:17.229Z,98442.47
2019-03-10T00:11:47.481Z,98447.25
2019-03-10T00:14:18.088Z,98459.91
2019-03-10T00:16:49.524Z,98456.98
2019-03-10T00:19:20.187Z,98451.19
2019-03-10T00:21:50.997Z,98451.22
2019-03-10T00:24:21.349Z,98454.64
2019-03-10T00:26:51.609Z,98450.70
2019-03-10T00:29:21.850Z,98453.33
2019-03-10T00:31:52.032Z,98454.68
2019-03-10T00:34:22.236Z,98456.27
2019-03-10T00:36:52.673Z,98457.88
2019-03-10T00:39:59.813Z,98454.65
2019-03-10T00:43:05.779Z,98456.55
2019-03-10T00:46:19.626Z,98457.59
2019-03-10T00:49:33.731Z,98441.27
2019-03-10T00:52:13.516Z,98440.22
2019-03-10T00:54:43.862Z,98456.56
2019-03-10T00:57:14.171Z,98459.44
2019-03-10T00:59:44.372Z,98464.48
2019-03-10T01:02:14.746Z,98465.27
2019-03-10T01:04:45.267Z,98469.97
2019-03-10T01:07:15.692Z,98466.08
2019-03-10T01:09:45.958Z,98461.34
2019-03-10T01:12:17.353Z,98463.97
2019-03-10T01:14:47.555Z,98464.53
2019-03-10T01:17:19.762Z,98462.42
2019-03-10T01:19:51.107Z,98458.17
2019-03-10T01:22:21.888Z,98454.23
2019-03-10T01:24:52.139Z,98450.28
2019-03-10T01:27:22.337Z,98452.60
2019-03-10T01:29:52.722Z,98459.27
2019-03-10T01:33:03.198Z,98462.15
2019-03-10T01:35:36.857Z,98460.58
2019-03-10T01:38:07.130Z,98454.52
2019-03-10T01:40:37.342Z,98450.84
2019-03-10T01:43:07.558Z,98456.13
2019-03-10T01:45:37.845Z,98443.98
2019-03-10T01:48:08.131Z,98444.22
2019-03-10T01:50:38.390Z,98417.34
2019-03-10T01:53:08.613Z,98425.25
2019-03-10T01:55:38.834Z,98426.06
2019-03-10T01:58:09.080Z,98408.41
2019-03-10T02:00:39.257Z,98411.26
2019-03-10T02:03:09.511Z,98413.30
2019-03-10T02:05:40.085Z,98421.23
2019-03-10T02:08:10.393Z,98414.69
2019-03-10T02:10:40.838Z,98418.59
2019-03-10T02:13:11.038Z,98413.88
2019-03-10T02:15:41.225Z,98419.66
2019-03-10T02:18:11.476Z,98412.27
2019-03-10T02:20:42.332Z,98419.09
2019-03-10T02:23:12.657Z,98400.64
2019-03-10T02:25:42.881Z,98388.23
2019-03-10T02:28:13.063Z,98399.28
2019-03-10T02:30:43.239Z,98398.70
2019-03-10T02:33:13.544Z,98394.72
2019-03-10T02:35:43.751Z,98392.89
2019-03-10T02:38:14.055Z,98391.27
2019-03-10T02:40:44.250Z,98394.71
2019-03-10T02:43:14.477Z,98395.94
2019-03-10T02:45:45.829Z,98390.63
2019-03-10T02:48:17.537Z,98378.78
2019-03-10T02:50:47.823Z,98386.20
2019-03-10T02:53:18.029Z,98372.71
2019-03-10T02:55:48.314Z,98375.34
2019-03-10T02:58:18.559Z,98373.80
2019-03-10T03:00:48.864Z,98374.30
2019-03-10T03:03:19.090Z,98375.08
2019-03-10T03:05:49.521Z,98370.64
2019-03-10T03:08:19.732Z,98362.09
2019-03-10T03:10:50.054Z,98359.19
2019-03-10T03:13:20.293Z,98360.22
2019-03-10T03:15:51.622Z,98357.09
2019-03-10T03:18:21.885Z,98338.80
2019-03-10T03:20:52.141Z,98352.73
2019-03-10T03:23:22.349Z,98345.49
2019-03-10T03:25:52.553Z,98342.79
2019-03-10T03:28:22.927Z,98344.82
2019-03-10T03:30:53.176Z,98334.06
2019-03-10T03:33:23.376Z,98331.16
2019-03-10T03:36:02.849Z,98336.36
2019-03-10T03:38:42.127Z,98327.39
2019-03-10T03:41:14.641Z,98317.52
2019-03-10T03:43:44.863Z,98318.41
2019-03-10T03:46:15.073Z,98314.40
2019-03-10T03:48:45.349Z,98304.73
2019-03-10T03:51:15.549Z,98304.08
2019-03-10T03:53:45.956Z,98302.56
2019-03-10T03:56:16.176Z,98291.36
2019-03-10T03:58:46.387Z,98294.30
2019-03-10T04:01:23.124Z,98287.41
2019-03-10T04:03:53.399Z,98291.92
2019-03-10T04:06:23.800Z,98289.70
2019-03-10T04:08:54.114Z,98292.08
2019-03-10T04:11:24.321Z,98284.09
2019-03-10T04:13:54.716Z,98281.73
2019-03-10T04:16:24.968Z,98282.38
2019-03-10T04:18:55.209Z,98282.27
2019-03-10T04:21:25.582Z,98282.14
2019-03-10T04:23:55.844Z,98286.55
2019-03-10T04:26:28.805Z,98285.13
2019-03-10T04:28:59.061Z,98285.50
2019-03-10T04:31:29.328Z,98274.01
2019-03-10T04:34:01.916Z,98284.83
2019-03-10T04:36:32.085Z,98278.69
2019-03-10T04:39:02.493Z,98272.08
2019-03-10T04:41:34.300Z,98272.08
2019-03-10T04:44:04.490Z,98279.84
2019-03-10T04:46:34.713Z,98279.19
2019-03-10T04:49:05.192Z,98268.89
2019-03-10T04:51:35.641Z,98270.45
2019-03-10T04:54:05.876Z,98262.89
2019-03-10T04:56:44.917Z,98265.16
2019-03-10T04:59:15.262Z,98263.71
2019-03-10T05:01:45.507Z,98254.36
2019-03-10T05:04:15.795Z,98246.28
2019-03-10T05:06:47.689Z,98246.86
2019-03-10T05:09:18.019Z,98248.05
2019-03-10T05:11:50.496Z,98238.65
2019-03-10T05:14:20.928Z,98233.03
2019-03-10T05:16:51.217Z,98219.22
2019-03-10T05:19:21.514Z,98224.58
2019-03-10T05:21:51.757Z,98223.70
2019-03-10T05:24:21.987Z,98223.44
2019-03-10T05:26:52.221Z,98233.16
2019-03-10T05:29:22.512Z,98221.01
2019-03-10T05:31:52.782Z,98222.30
2019-03-10T05:34:23.177Z,98217.89
2019-03-10T05:36:54.522Z,98208.70
2019-03-10T05:39:24.840Z,98206.36
2019-03-10T05:41:55.170Z,98205.72
2019-03-10T05:44:25.433Z,98202.05
2019-03-10T05:46:56.271Z,98209.18
2019-03-10T05:49:26.940Z,98203.52
2019-03-10T05:51:57.526Z,98202.23
2019-03-10T05:54:28.870Z,98201.94
2019-03-10T05:56:59.173Z,98195.45
2019-03-10T05:59:29.380Z,98188.26
2019-03-10T06:01:59.691Z,98195.06
2019-03-10T06:04:29.979Z,98185.70
2019-03-10T06:07:00.628Z,98182.39
2019-03-10T06:09:30.997Z,98177.80
2019-03-10T06:12:01.261Z,98182.16
2019-03-10T06:14:32.521Z,98183.91
2019-03-10T06:17:02.753Z,98178.01
2019-03-10T06:19:33.146Z,98170.64
2019-03-10T06:22:03.628Z,98168.53
2019-03-10T06:24:34.078Z,98160.84
2019-03-10T06:27:04.266Z,98158.73
2019-03-10T06:29:36.009Z,98155.36
2019-03-10T06:32:06.346Z,98157.77
2019-03-10T06:34:36.614Z,98154.50
2019-03-10T06:37:06.893Z,98157.50
2019-03-10T06:39:37.180Z,98152.91
2019-03-10T06:42:07.511Z,98147.42
2019-03-10T06:44:37.904Z,98141.16
2019-03-10T06:47:08.249Z,98136.94
2019-03-10T06:49:38.511Z,98138.09
2019-03-10T06:52:08.829Z,98134.30
2019-03-10T06:54:40.161Z,98124.29
2019-03-10T06:57:10.533Z,98098.98
2019-03-10T06:59:42.577Z,98099.17
2019-03-10T07:02:12.976Z,98100.41
2019-03-10T07:04:43.332Z,98098.26
2019-03-10T07:07:13.764Z,98090.45
2019-03-10T07:09:44.129Z,98084.97
2019-03-10T07:12:14.478Z,98075.03
2019-03-10T07:14:47.074Z,98072.39
2019-03-10T07:17:17.796Z,98071.04
2019-03-10T07:19:48.150Z,98078.64
2019-03-10T07:22:18.426Z,98070.28
2019-03-10T07:24:48.782Z,98062.22
2019-03-10T07:27:19.468Z,98060.86
2019-03-10T07:29:57.443Z,98051.77
2019-03-10T07:32:53.037Z,98041.86
2019-03-10T07:35:50.459Z,98037.41
2019-03-10T07:38:48.882Z,98014.30
2019-03-10T07:41:36.372Z,98006.66
2019-03-10T07:44:21.392Z,97999.31
2019-03-10T07:47:13.561Z,98005.58
2019-03-10T07:49:53.085Z,98007.35
2019-03-10T07:52:48.498Z,98016.62
2019-03-10T07:55:31.932Z,98008.40
2019-03-10T07:58:30.876Z,98020.03
2019-03-10T08:01:25.962Z,98017.03
2019-03-10T08:04:09.273Z,98027.20
2019-03-10T08:07:16.726Z,98029.30
2019-03-10T08:10:02.392Z,98019.73
2019-03-10T08:12:59.529Z,98020.30
2019-03-10T08:16:00.165Z,98018.23
2019-03-10T08:18:53.005Z,98025.73
2019-03-10T08:22:00.980Z,98011.94
2019-03-10T08:24:48.905Z,98007.09
2019-03-10T08:27:44.004Z,98014.63
2019-03-10T08:30:46.140Z,98007.97
2019-03-10T08:33:42.458Z,98002.63
2019-03-10T08:36:31.723Z,98000.72
2019-03-10T08:39:22.135Z,97994.63
2019-03-10T08:42:05.854Z,97994.73
2019-03-10T08:44:54.118Z,97990.98
2019-03-10T08:47:48.208Z,97992.58
2019-03-10T08:50:37.627Z,97977.02
2019-03-10T08:53:22.206Z,97974.11
2019-03-10T08:55:58.403Z,97969.77
2019-03-10T08:58:43.248Z,97962.34
2019-03-10T09:01:32.572Z,97948.55
2019-03-10T09:04:28.091Z,97953.71
2019-03-10T09:07:29.703Z,97950.40
2019-03-10T09:10:10.133Z,97943.87
2019-03-10T09:12:46.919Z,97929.87
2019-03-10T09:15:34.336Z,97931.24
2019-03-10T09:18:22.671Z,97926.48
2019-03-10T09:21:10.720Z,97917.65
2019-03-10T09:24:07.194Z,97913.95
2019-03-10T09:26:55.204Z,97909.86
2019-03-10T09:29:33.335Z,97902.64
2019-03-10T09:32:23.094Z,97890.14
2019-03-10T09:35:10.633Z,97878.58
2019-03-10T09:37:48.243Z,97875.44
2019-03-10T09:40:37.447Z,97870.76
2019-03-10T09:43:38.828Z,97859.64
2019-03-10T09:46:40.527Z,97850.29
2019-03-10T09:49:24.870Z,97852.47
2019-03-10T09:52:29.671Z,97842.53
2019-03-10T09:55:17.905Z,97831.73
2019-03-10T09:58:06.285Z,97826.61
2019-03-10T10:00:54.193Z,97823.19
2019-03-10T10:03:46.637Z,97821.02
2019-03-10T10:06:34.462Z,97815.23
2019-03-10T10:09:34.850Z,97814.50
2019-03-10T10:12:19.411Z,97812.55
2019-03-10T10:15:09.490Z,97803.77
2019-03-10T10:18:14.293Z,97801.28
2019-03-10T10:20:55.483Z,97794.80
2019-03-10T10:23:37.036Z,97786.69
2019-03-10T10:26:16.079Z,97778.36
2019-03-10T10:29:08.283Z,97756.74
2019-03-10T10:32:14.831Z,97762.43
2019-03-10T10:35:16.220Z,97755.34
2019-03-10T10:38:18.511Z,97747.38
2019-03-10T10:41:17.661Z,97737.69
2019-03-10T10:44:05.271Z,97728.97
2019-03-10T10:46:53.707Z,97723.52
2019-03-10T10:49:49.632Z,97711.15
2019-03-10T10:52:29.102Z,97702.73
2019-03-10T10:55:24.507Z,97688.06
2019-03-10T10:58:01.233Z,97690.92
2019-03-10T11:00:42.843Z,97681.58
2019-03-10T11:03:33.085Z,97667.33
2019-03-10T11:06:10.089Z,97664.14
2019-03-10T11:09:08.390Z,97655.25
2019-03-10T11:12:00.600Z,97646.36
2019-03-10T11:14:47.415Z,97629.73
2019-03-10T11:17:29.927Z,97619.45
2019-03-10T11:20:33.330Z,97601.27
2019-03-10T11:23:12.127Z,97596.66
2019-03-10T11:25:49.975Z,97587.80
2019-03-10T11:28:38.162Z,97581.62
2019-03-10T11:31:34.049Z,97572.78
2019-03-10T11:34:40.843Z,97577.56
2019-03-10T11:37:24.826Z,97561.45
2019-03-10T11:40:17.088Z,97541.47
2019-03-10T11:43:04.884Z,97534.31
2019-03-10T11:45:55.243Z,97530.20
2019-03-10T11:49:01.270Z,97520.10
2019-03-10T11:51:49.428Z,97507.41
2019-03-10T11:54:30.081Z,97493.45
2019-03-10T11:57:06.784Z,97482.27
2019-03-10T11:59:53.907Z,97483.86
2019-03-10T12:02:42.011Z,97459.81
2019-03-10T12:05:31.275Z,97459.62
2019-03-10T12:08:22.200Z,97443.05
2019-03-10T12:10:52.630Z,97435.81
2019-03-10T12:13:25.515Z,97423.98
2019-03-10T12:15:56.647Z,97412.01
2019-03-10T12:18:27.030Z,97408.81
2019-03-10T12:21:00.107Z,97399.03
2019-03-10T12:23:31.725Z,97382.76
2019-03-10T12:26:02.052Z,97374.74
2019-03-10T12:28:32.816Z,97364.90
2019-03-10T12:31:03.291Z,97341.98
2019-03-10T12:33:35.933Z,97328.07
2019-03-10T12:36:06.242Z,97335.55
2019-03-10T12:38:36.564Z,97317.01
2019-03-10T12:41:06.989Z,97315.20
2019-03-10T12:43:38.391Z,97324.42
2019-03-10T12:46:08.973Z,97304.81
2019-03-10T12:48:43.898Z,97280.58
2019-03-10T12:51:14.967Z,97294.48
2019-03-10T12:53:48.541Z,97293.57
2019-03-10T12:56:20.669Z,97285.27
2019-03-10T12:58:53.675Z,97272.86
2019-03-10T13:01:25.058Z,97259.61
2019-03-10T13:03:59.360Z,97168.38
2019-03-10T13:06:29.761Z,97165.94
2019-03-10T13:09:00.823Z,97214.39
2019-03-10T13:11:32.886Z,97205.63
2019-03-10T13:14:10.713Z,97201.14
2019-03-10T13:16:42.278Z,97203.13
2019-03-10T13:19:16.290Z,97209.44
2019-03-10T13:21:57.249Z,97197.78
2019-03-10T13:24:27.576Z,97205.48
2019-03-10T13:26:57.852Z,97195.91
2019-03-10T13:29:29.807Z,97180.50
2019-03-10T13:32:00.974Z,97182.69
2019-03-10T13:34:33.639Z,97177.30
2019-03-10T13:37:05.730Z,97160.47
2019-03-10T13:39:46.535Z,97153.48
2019-03-10T13:42:43.631Z,97138.01
2019-03-10T13:45:16.732Z,97128.63
2019-03-10T13:47:47.165Z,97127.63
2019-03-10T13:50:17.444Z,97131.12
2019-03-10T13:52:47.678Z,97120.87
2019-03-10T13:55:18.136Z,97109.88
2019-03-10T13:57:48.398Z,97087.83
2019-03-10T14:00:21.464Z,97069.13
2019-03-10T14:02:51.816Z,97050.34
2019-03-10T14:05:29.350Z,97040.84
2019-03-10T14:07:59.590Z,97049.16
2019-03-10T14:10:30.002Z,97045.17
2019-03-10T14:13:00.678Z,97048.69
2019-03-10T14:15:31.140Z,97038.96
2019-03-10T14:18:01.557Z,97045.55
2019-03-10T14:20:33.654Z,97045.90
2019-03-10T14:23:10.985Z,97043.16
2019-03-10T14:25:41.420Z,97042.38
2019-03-10T14:28:12.387Z,97041.91
2019-03-10T14:30:45.425Z,97031.22
2019-03-10T14:33:15.998Z,97032.66
2019-03-10T14:35:46.541Z,97037.18
2019-03-10T14:38:16.809Z,97040.52
2019-03-10T14:40:47.145Z,97042.50
2019-03-10T14:43:20.061Z,97047.05
2019-03-10T14:45:50.444Z,97036.33
2019-03-10T14:48:20.810Z,97051.59
2019-03-10T14:50:51.221Z,97050.58
2019-03-10T14:53:21.445Z,97022.83
2019-03-10T14:55:51.872Z,96997.41
2019-03-10T14:58:22.140Z,97011.55
2019-03-10T15:00:53.587Z,97010.88
2019-03-10T15:03:24.938Z,97001.83
2019-03-10T15:05:55.490Z,96996.42
2019-03-10T15:08:26.718Z,96984.69
2019-03-10T15:10:57.021Z,96987.23
2019-03-10T15:13:27.282Z,96977.97
2019-03-10T15:15:57.607Z,96991.56
2019-03-10T15:18:28.079Z,96997.30
2019-03-10T15:20:58.356Z,96995.97
2019-03-10T15:23:28.576Z,96993.64
2019-03-10T15:25:59.063Z,97005.80
2019-03-10T15:28:29.421Z,97014.75
2019-03-10T15:30:59.760Z,97031.55
2019-03-10T15:33:30.024Z,97040.83
2019-03-10T15:36:00.235Z,97042.27
2019-03-10T15:38:31.526Z,97042.05
2019-03-10T15:41:01.849Z,97052.53
2019-03-10T15:43:32.137Z,97052.43
2019-03-10T15:46:03.322Z,97070.31
2019-03-10T15:48:34.627Z,97094.52
2019-03-10T15:51:04.974Z,97048.02
2019-03-10T15:53:35.301Z,97015.95
2019-03-10T15:56:05.565Z,96989.87
2019-03-10T15:58:36.023Z,96971.78
2019-03-10T16:01:06.354Z,96975.51
2019-03-10T16:03:36.654Z,96974.86
2019-03-10T16:06:06.979Z,96982.58
2019-03-10T16:08:46.275Z,96986.45
2019-03-10T16:11:16.622Z,96993.86
2019-03-10T16:13:47.614Z,96989.00
2019-03-10T16:16:22.298Z,96992.74
2019-03-10T16:18:56.074Z,96983.70
2019-03-10T16:21:26.398Z,96981.16
2019-03-10T16:23:56.668Z,96986.47
2019-03-10T16:26:27.024Z,96995.84
2019-03-10T16:28:57.224Z,96986.79
2019-03-10T16:31:27.589Z,97000.16
2019-03-10T16:33:57.893Z,97015.83
2019-03-10T16:36:28.195Z,97024.56
2019-03-10T16:38:58.877Z,97041.75
2019-03-10T16:41:29.182Z,97056.75
2019-03-10T16:43:59.503Z,97012.25
2019-03-10T16:46:30.145Z,97002.67
2019-03-10T16:49:00.410Z,97011.81
2019-03-10T16:51:30.657Z,97015.88
2019-03-10T16:54:01.060Z,97019.66
2019-03-10T16:56:32.259Z,97034.53
2019-03-10T16:59:02.928Z,97016.97
2019-03-10T17:01:33.228Z,96997.13
2019-03-10T17:04:03.462Z,96997.43
2019-03-10T17:06:33.708Z,97002.29
2019-03-10T17:09:15.373Z,97014.35
2019-03-10T17:11:45.978Z,96999.34
2019-03-10T17:14:16.192Z,97008.41
2019-03-10T17:16:46.403Z,97015.34
2019-03-10T17:19:17.152Z,97033.11
2019-03-10T17:21:50.926Z,97047.83
2019-03-10T17:24:22.528Z,97074.16
2019-03-10T17:26:52.817Z,97071.19
2019-03-10T17:29:23.552Z,97061.61
2019-03-10T17:31:56.154Z,97049.02
2019-03-10T17:34:26.463Z,97052.29
2019-03-10T17:36:56.774Z,97032.31
2019-03-10T17:39:27.098Z,97037.81
2019-03-10T17:41:57.422Z,97050.04
2019-03-10T17:44:27.690Z,97044.09
2019-03-10T17:46:58.232Z,97061.27
2019-03-10T17:49:28.435Z,97059.70
2019-03-10T17:51:58.938Z,97054.16
2019-03-10T17:54:29.234Z,97079.14
2019-03-10T17:56:59.549Z,97068.98
2019-03-10T17:59:29.861Z,97080.95
2019-03-10T18:02:09.002Z,97067.02
2019-03-10T18:04:33.962Z,97073.20
2019-03-10T18:07:05.275Z,97086.02
2019-03-10T18:09:35.500Z,97086.91
2019-03-10T18:12:05.911Z,97090.64
2019-03-10T18:14:36.479Z,97111.16
2019-03-10T18:17:06.813Z,97110.27
2019-03-10T18:19:37.508Z,97104.47
2019-03-10T18:22:07.868Z,97110.08
2019-03-10T18:24:38.232Z,97101.92
2019-03-10T18:27:08.604Z,97105.34
2019-03-10T18:29:38.830Z,97110.03
2019-03-10T18:32:17.568Z,97115.62
2019-03-10T18:34:51.413Z,97116.66
2019-03-10T18:37:36.134Z,97115.31
2019-03-10T18:40:11.724Z,97123.05
2019-03-10T18:42:46.342Z,97130.36
2019-03-10T18:45:17.683Z,97124.22
2019-03-10T18:47:49.157Z,97134.47
2019-03-10T18:50:19.566Z,97115.67
2019-03-10T18:52:50.791Z,97129.02
2019-03-10T18:55:23.013Z,97119.66
2019-03-10T18:57:53.327Z,97122.46
2019-03-10T19:00:33.914Z,97132.61
2019-03-10T19:03:06.220Z,97119.77
2019-03-10T19:05:36.498Z,97124.08
2019-03-10T19:08:06.877Z,97126.22
2019-03-10T19:10:39.017Z,97130.80
2019-03-10T19:13:10.548Z,97138.39
2019-03-10T19:15:41.761Z,97128.20
2019-03-10T19:18:12.353Z,97120.64
2019-03-10T19:20:44.695Z,97130.70
2019-03-10T19:23:15.539Z,97136.77
2019-03-10T19:25:48.190Z,97126.45
2019-03-10T19:28:37.306Z,97126.39
2019-03-10T19:31:11.670Z,97140.08
2019-03-10T19:33:42.204Z,97151.29
2019-03-10T19:36:14.951Z,97138.95
2019-03-10T19:38:45.447Z,97148.53
2019-03-10T19:41:15.832Z,97135.67
2019-03-10T19:43:48.076Z,97146.95
2019-03-10T19:46:18.461Z,97156.43
2019-03-10T19:48:50.401Z,97144.05
2019-03-10T19:51:20.891Z,97161.95
2019-03-10T19:53:54.385Z,97151.75
2019-03-10T19:56:24.544Z,97164.75
2019-03-10T19:58:55.069Z,97162.36
2019-03-10T20:01:49.241Z,97171.09
2019-03-10T20:04:26.324Z,97143.41
2019-03-10T20:06:56.820Z,97151.03
2019-03-10T20:09:27.466Z,97159.13
2019-03-10T20:11:57.889Z,97177.99
2019-03-10T20:14:29.299Z,97200.39
2019-03-10T20:16:59.833Z,97190.14
2019-03-10T20:19:33.266Z,97195.09
2019-03-10T20:22:05.582Z,97201.98
2019-03-10T20:24:36.181Z,97197.41
2019-03-10T20:27:06.423Z,97190.07
2019-03-10T20:29:38.068Z,97211.80
2019-03-10T20:32:13.858Z,97209.66
2019-03-10T20:34:41.998Z,97214.03
2019-03-10T20:37:12.289Z,97236.85
2019-03-10T20:39:42.626Z,97184.50
2019-03-10T20:42:13.500Z,97235.67
2019-03-10T20:44:43.828Z,97229.33
2019-03-10T20:47:14.204Z,97219.78
2019-03-10T20:49:46.790Z,97194.73
2019-03-10T20:52:17.455Z,97235.84
2019-03-10T20:54:48.065Z,97219.39
2019-03-10T20:57:26.359Z,97301.81
2019-03-10T21:00:00.742Z,97285.36
2019-03-10T21:02:31.939Z,97301.56
2019-03-10T21:05:02.230Z,97326.61
2019-03-10T21:07:33.535Z,97324.84
2019-03-10T21:10:04.004Z,97399.08
2019-03-10T21:12:40.568Z,97406.48
2019-03-10T21:15:07.906Z,97457.45
2019-03-10T21:17:38.171Z,97454.23
2019-03-10T21:20:12.087Z,97519.40
2019-03-10T21:22:42.879Z,97536.30
2019-03-10T21:25:15.037Z,97586.50
2019-03-10T21:27:45.381Z,97620.54
2019-03-10T21:30:18.078Z,97644.93
2019-03-10T21:32:48.580Z,97670.63
2019-03-10T21:35:18.910Z,97708.61
2019-03-10T21:37:49.136Z,97731.02
2019-03-10T21:40:21.298Z,97767.50
2019-03-10T21:42:51.618Z,97779.79
2019-03-10T21:45:22.166Z,97786.44
2019-03-10T21:47:52.380Z,97818.46
2019-03-10T21:50:22.602Z,97841.03
2019-03-10T21:52:52.894Z,97867.00
2019-03-10T21:55:23.151Z,97881.69
2019-03-10T21:57:53.375Z,97901.41
2019-03-10T22:00:23.819Z,97936.27
2019-03-10T22:02:54.127Z,97960.95
2019-03-10T22:05:24.404Z,97964.86
2019-03-10T22:07:54.594Z,97973.00
2019-03-10T22:10:27.860Z,97986.38
2019-03-10T22:12:56.694Z,98008.43
2019-03-10T22:15:26.921Z,98023.12
2019-03-10T22:17:57.329Z,98042.00
2019-03-10T22:20:27.571Z,98055.63
2019-03-10T22:22:58.118Z,98066.66
2019-03-10T22:25:28.611Z,98072.44
2019-03-10T22:27:58.808Z,98079.28
2019-03-10T22:30:29.033Z,98090.28
2019-03-10T22:32:59.223Z,98093.42
2019-03-10T22:35:29.430Z,98114.69
2019-03-10T22:37:59.793Z,98105.48
2019-03-10T22:40:30.026Z,98112.55
2019-03-10T22:43:00.334Z,98132.78
2019-03-10T22:45:30.565Z,98131.17
2019-03-10T22:48:00.767Z,98141.68
2019-03-10T22:50:30.982Z,98152.97
2019-03-10T22:53:01.238Z,98166.06
2019-03-10T22:55:31.610Z,98165.80
2019-03-10T22:58:01.895Z,98155.08
2019-03-10T23:00:44.772Z,98174.75
2019-03-10T23:03:16.612Z,98173.16
2019-03-10T23:05:46.967Z,98181.84
2019-03-10T23:08:17.251Z,98192.34
2019-03-10T23:10:47.485Z,98193.40
2019-03-10T23:13:18.777Z,98197.58
2019-03-10T23:15:49.029Z,98202.55
2019-03-10T23:18:19.236Z,98207.55
2019-03-10T23:20:49.480Z,98228.56
2019-03-10T23:23:19.886Z,98225.91
2019-03-10T23:25:50.189Z,98215.17
2019-03-10T23:28:20.476Z,98225.36
2019-03-10T23:30:50.875Z,98221.97
2019-03-10T23:33:21.078Z,98231.47
2019-03-10T23:35:51.296Z,98238.52
2019-03-10T23:38:21.613Z,98229.61
2019-03-10T23:40:51.873Z,98241.16
2019-03-10T23:43:23.797Z,98241.98
2019-03-10T23:45:55.254Z,98240.67
2019-03-10T23:48:25.453Z,98244.34
2019-03-10T23:50:55.626Z,98243.03
2019-03-10T23:53:25.856Z,98248.83
2019-03-10T23:55:56.122Z,98247.78
2019-03-10T23:58:26.333Z,98251.20
